Latest Weather Observations for Mount Ginini

IDN60901

Issued at 11:25 pm EST Thursday 31 July 2014 (issued every 10 minutes, with the page automatically refreshed every 10 minutes)

About weather observations | Map of Canberra area stations | Latest observations for Canberra area | Other Formats
Station Details ID: 070349 Name: MOUNT GININI AWS Lat: -35.53 Lon: 148.77 Height: 1760.0 m
Data from the previous 72 hours. | See also: Recent months at Mount Ginini
Date/Time
EST
Tmp

°C
App
Tmp
°C
Dew
Point
°C
Rel
Hum
%
Delta-T

°C
Wind Press
QNH
hPa
Press
MSL
hPa
Rain
since
9 am
mm
Dir
 
Spd
km/h
Gust
km/h
Spd
kts
Gust
kts
31/11:00pm 3.8 -6.1 -4.2 56 3.0 WNW 39 69 21 37 - - 0.0
31/10:30pm 3.9 -6.0 -4.3 55 3.1 WNW 39 72 21 39 - - 0.0
31/10:00pm 3.8 -6.1 -4.2 56 3.0 WNW 39 69 21 37 - - 0.0
31/09:30pm 3.9 -6.4 -4.1 56 3.1 WNW 41 74 22 40 - - 0.0
31/09:00pm 3.5 -6.0 -3.7 59 2.8 WNW 37 70 20 38 - - 0.0
31/08:30pm 3.6 -7.2 -3.6 59 2.8 WNW 44 89 24 48 - - 0.0
31/08:00pm 3.8 -6.4 -3.0 61 2.7 WNW 41 76 22 41 - - 0.0
31/07:30pm 3.7 -6.1 -2.7 63 2.5 WNW 39 65 21 35 - - 0.0
31/07:00pm 3.6 -6.8 -1.5 69 2.1 WNW 43 74 23 40 - - 0.0
31/06:30pm 3.8 -6.7 -1.2 70 2.1 WNW 44 83 24 45 - - 0.0
31/06:00pm 3.6 -6.8 -0.2 76 1.6 WNW 44 85 24 46 - - 0.0
31/05:30pm 3.3 -5.9 1.3 87 0.9 WNW 39 69 21 37 - - 0.0
31/05:00pm 3.6 -6.3 1.6 87 0.9 WNW 43 63 23 34 - - 0.0
31/04:30pm 4.0 -5.8 2.0 87 0.9 WNW 43 65 23 35 - - 0.0
31/04:00pm 4.0 -5.9 2.8 92 0.5 WNW 44 70 24 38 - - 0.0
31/03:37pm 3.6 -4.6 2.6 93 0.5 WNW 35 76 19 41 - - 0.0
31/03:30pm 3.8 -4.4 2.9 94 0.4 WNW 35 54 19 29 - - 0.0
31/03:00pm 3.8 -4.8 2.5 91 0.6 WNW 37 80 20 43 - - 0.0
31/02:30pm 3.9 -4.4 1.9 87 0.9 WNW 35 69 19 37 - - 0.0
31/02:00pm 4.4 -4.0 1.3 80 1.4 WNW 35 74 19 40 - - 0.0
31/01:30pm 3.7 -5.5 1.4 85 1.0 WNW 39 72 21 39 - - 0.0
31/01:00pm 3.9 -4.3 2.9 93 0.5 WNW 35 69 19 37 - - 0.0
31/12:30pm 3.4 -4.8 2.5 94 0.4 W 35 63 19 34 - - 0.0
31/12:00pm 3.5 -4.7 2.8 95 0.3 W 35 63 19 34 - - 0.0
31/11:30am 2.7 -5.2 2.3 97 0.2 WNW 33 74 18 40 - - 0.0
31/11:00am 2.5 -5.8 2.1 97 0.2 W 35 65 19 35 - - 0.0
31/10:30am 2.4 -5.5 2.1 98 0.1 W 33 59 18 32 - - 0.0
31/10:00am 2.2 -5.8 1.9 98 0.1 W 33 70 18 38 - - 0.0
31/09:30am 2.4 -5.9 2.1 98 0.1 WNW 35 63 19 34 - - 0.0
31/09:00am 2.0 -6.4 1.6 97 0.2 W 35 70 19 38 - - 1.0
31/08:30am 1.7 -6.4 1.3 97 0.2 W 33 59 18 32 - - 1.0
31/08:00am 1.5 -7.3 1.1 97 0.2 W 37 74 20 40 - - 1.0
31/07:30am 1.6 -6.9 1.2 97 0.2 W 35 69 19 37 - - 1.0
31/07:00am 1.6 -7.2 1.2 97 0.2 W 37 63 20 34 - - 1.0
31/06:30am 1.7 -6.4 1.3 97 0.2 W 33 59 18 32 - - 1.0
31/06:00am 1.9 -6.1 1.5 97 0.2 W 33 67 18 36 - - 1.0
31/05:30am 2.1 -5.9 1.7 97 0.2 W 33 57 18 31 - - 1.0
31/05:00am 2.2 -6.5 1.8 97 0.2 W 37 67 20 36 - - 1.0
31/04:30am 2.1 -6.3 1.7 97 0.2 W 35 63 19 34 - - 1.0
31/04:00am 2.3 -6.4 1.9 97 0.2 W 37 67 20 36 - - 1.0
31/03:30am 2.2 -7.3 1.8 97 0.2 W 41 70 22 38 - - 1.0
31/03:00am 2.3 -7.6 1.9 97 0.2 W 43 74 23 40 - - 1.0
31/02:30am 2.1 -7.0 1.7 97 0.2 W 39 78 21 42 - - 1.0
31/02:00am 2.1 -7.0 1.7 97 0.2 W 39 69 21 37 - - 1.0
31/01:30am 2.1 -7.4 1.7 97 0.2 W 41 70 22 38 - - 1.0
31/01:00am 2.2 -7.3 1.8 97 0.2 W 41 72 22 39 - - 1.0
31/12:30am 2.3 -6.8 1.9 97 0.2 W 39 63 21 34 - - 1.0
31/12:00am 2.5 -6.6 2.1 97 0.2 W 39 65 21 35 - - 1.0
 
Date/Time
EST
Tmp

°C
App
Tmp
°C
Dew
Point
°C
Rel
Hum
%
Delta-T

°C
Wind Press
QNH
hPa
Press
MSL
hPa
Rain
since
9 am
mm
Dir
 
Spd
km/h
Gust
km/h
Spd
kts
Gust
kts
30/11:30pm 2.3 -6.8 1.9 97 0.2 W 39 65 21 35 - - 1.0
30/11:00pm 2.7 -6.0 2.3 97 0.2 W 37 61 20 33 - - 1.0
30/10:30pm 2.8 -5.5 2.4 97 0.2 W 35 63 19 34 - - 1.0
30/10:00pm 2.8 -5.8 2.4 97 0.2 W 37 63 20 34 - - 1.0
30/09:30pm 2.7 -6.3 2.3 97 0.2 W 39 69 21 37 - - 1.0
30/09:00pm 2.8 -5.5 2.4 97 0.2 W 35 65 19 35 - - 1.0
30/08:30pm 2.7 -5.0 2.3 97 0.2 W 32 61 17 33 - - 1.0
30/08:00pm 2.7 -5.2 2.3 97 0.2 W 33 67 18 36 - - 1.0
30/07:30pm 2.7 -5.2 2.3 97 0.2 W 33 65 18 35 - - 1.0
30/07:00pm 2.7 -5.2 2.3 97 0.2 W 33 54 18 29 - - 1.0
30/06:30pm 2.7 -5.0 2.3 97 0.2 W 32 61 17 33 - - 1.0
30/06:00pm 2.7 -6.0 2.3 97 0.2 W 37 72 20 39 - - 1.0
30/05:30pm 2.6 -5.3 2.2 97 0.2 W 33 69 18 37 - - 0.8
30/05:00pm 2.5 -5.2 2.1 97 0.2 W 32 61 17 33 - - 0.8
30/04:30pm 2.6 -5.7 2.2 97 0.2 W 35 61 19 33 - - 0.8
30/04:00pm 2.8 -4.9 2.4 97 0.2 W 32 76 17 41 - - 0.8
30/03:30pm 2.8 -6.2 2.5 98 0.1 W 39 70 21 38 - - 0.8
30/03:00pm 2.8 -5.4 2.5 98 0.1 W 35 65 19 35 - - 0.8
30/02:30pm 3.0 -5.2 2.7 98 0.1 W 35 65 19 35 - - 0.8
30/02:00pm 2.8 -5.8 2.5 98 0.1 W 37 61 20 33 - - 0.8
30/01:30pm 2.8 -5.8 2.5 98 0.1 W 37 67 20 36 - - 0.8
30/01:00pm 2.7 -5.2 2.4 98 0.1 W 33 69 18 37 - - 0.8
30/12:30pm 2.7 -5.2 2.4 98 0.1 W 33 57 18 31 - - 0.8
30/12:00pm 2.6 -5.7 2.3 98 0.1 W 35 61 19 33 - - 0.6
30/11:30am 2.7 -4.6 2.4 98 0.1 W 30 54 16 29 - - 0.6
30/11:00am 2.8 -4.1 2.5 98 0.1 W 28 54 15 29 - - 0.6
30/10:34am 2.7 -4.2 2.4 98 0.1 W 28 48 15 26 - - 0.4
30/10:30am 2.7 -3.8 2.4 98 0.1 W 26 46 14 25 - - 0.4
30/10:00am 2.7 -3.5 2.4 98 0.1 W 24 43 13 23 - - 0.4
30/09:30am 2.6 -3.2 2.3 98 0.1 W 22 44 12 24 - - 0.2
30/09:00am 2.5 -3.7 2.2 98 0.1 W 24 46 13 25 - - 2.6
30/08:30am 2.6 -2.8 2.3 98 0.1 W 20 39 11 21 - - 2.2
30/08:00am 2.7 -2.5 2.4 98 0.1 W 19 37 10 20 - - 1.4
30/07:30am 2.7 -3.1 2.4 98 0.1 W 22 43 12 23 - - 0.6
30/07:00am 2.6 -4.3 2.3 98 0.1 W 28 56 15 30 - - 0.4
30/06:30am 2.5 -4.5 2.2 98 0.1 WSW 28 57 15 31 - - 0.2
30/06:00am 2.5 -5.8 2.2 98 0.1 W 35 65 19 35 - - 0.0
30/05:30am 2.3 -5.5 2.0 98 0.1 W 32 59 17 32 - - 0.0
30/05:00am 2.4 -5.0 2.1 98 0.1 W 30 63 16 34 - - 0.0
30/04:30am 2.3 -5.1 2.0 98 0.1 W 30 63 16 34 - - 0.0
30/04:00am 2.3 -5.6 2.0 98 0.1 W 33 69 18 37 - - 0.0
30/03:30am 2.2 -5.6 1.9 98 0.1 W 32 54 17 29 - - 0.0
30/03:00am 2.0 -6.4 1.7 98 0.1 W 35 69 19 37 - - 0.0
30/02:30am 2.1 -6.6 1.8 98 0.1 W 37 72 20 39 - - 0.0
30/02:00am 2.2 -6.5 1.9 98 0.1 W 37 72 20 39 - - 0.0
30/01:30am 2.0 -6.7 1.7 98 0.1 W 37 70 20 38 - - 0.0
30/01:00am 1.9 -5.5 1.6 98 0.1 W 30 61 16 33 - - 0.0
30/12:30am 2.1 -6.3 1.8 98 0.1 W 35 72 19 39 - - 0.0
30/12:00am 1.9 -5.2 1.5 97 0.2 W 28 56 15 30 - - 0.0
 
Date/Time
EST
Tmp

°C
App
Tmp
°C
Dew
Point
°C
Rel
Hum
%
Delta-T

°C
Wind Press
QNH
hPa
Press
MSL
hPa
Rain
since
9 am
mm
Dir
 
Spd
km/h
Gust
km/h
Spd
kts
Gust
kts
29/11:30pm 2.0 -6.4 1.4 96 0.3 W 35 74 19 40 - - 0.0
29/11:00pm 2.0 -6.8 1.1 94 0.4 W 37 83 20 45 - - 0.0
29/10:30pm 2.1 -6.7 1.1 93 0.4 W 37 72 20 39 - - 0.0
29/10:00pm 2.5 -6.7 1.5 93 0.4 W 39 80 21 43 - - 0.0
29/09:50pm 2.4 -6.4 1.4 93 0.4 W 37 80 20 43 - - 0.0
29/09:30pm 2.3 -5.5 1.4 94 0.4 W 32 59 17 32 - - 0.0
29/09:00pm 2.1 -6.3 1.4 95 0.3 W 35 70 19 38 - - 0.0
29/08:30pm 2.0 -5.8 1.4 96 0.3 W 32 69 17 37 - - 0.0
29/08:07pm 2.0 -5.8 1.4 96 0.3 W 32 82 17 44 - - 0.0
29/08:00pm 1.7 -5.8 1.0 95 0.3 W 30 61 16 33 - - 0.0
29/07:30pm 1.6 -6.3 0.9 95 0.3 W 32 69 17 37 - - 0.0
29/07:00pm 1.7 -6.4 0.8 94 0.4 W 33 65 18 35 - - 0.0
29/06:30pm 1.4 -7.5 0.5 94 0.4 W 37 78 20 42 - - 0.0
29/06:00pm 1.1 -7.1 0.1 93 0.4 W 33 65 18 35 - - 0.0
29/05:30pm 1.4 -7.2 -2.2 77 1.5 W 33 69 18 37 - - 0.0
29/05:00pm 1.9 -6.5 -2.6 72 1.7 W 32 65 17 35 - - 0.0
29/04:30pm 2.3 -6.6 -2.0 73 1.7 W 35 70 19 38 - - 0.0
29/04:00pm 2.7 -5.8 -1.5 74 1.7 W 33 57 18 31 - - 0.0
29/03:30pm 2.6 -5.8 -2.1 71 1.9 W 32 76 17 41 - - 0.0
29/03:00pm 2.9 -6.8 -2.6 67 2.2 W 39 69 21 37 - - 0.0
29/02:30pm 3.4 -5.4 -1.5 70 2.0 W 35 67 19 36 - - 0.0
29/02:00pm 3.3 -6.4 -2.4 66 2.3 W 39 82 21 44 - - 0.0
29/01:30pm 3.1 -7.1 1.0 86 0.9 W 44 80 24 43 - - 0.0
29/01:11pm 3.1 -6.9 1.2 87 0.8 W 43 93 23 50 - - 0.0
29/01:00pm 3.3 -6.2 1.7 89 0.7 W 41 70 22 38 - - 0.0
29/12:30pm 3.0 -7.0 1.2 88 0.8 W 43 74 23 40 - - 0.0
29/12:00pm 3.1 -6.5 1.3 88 0.8 W 41 80 22 43 - - 0.0
29/11:30am 3.2 -6.0 1.3 87 0.8 W 39 74 21 40 - - 0.0
29/11:00am 3.5 -5.5 0.2 79 1.4 W 37 72 20 39 - - 0.0
29/10:30am 3.5 -4.6 -0.3 76 1.6 W 32 61 17 33 - - 0.0
29/10:00am 3.5 -3.9 -0.7 74 1.7 W 28 50 15 27 - - 0.0
29/09:30am 3.4 -5.3 -0.8 74 1.7 W 35 63 19 34 - - 0.0
29/09:00am 3.2 -5.9 -0.8 75 1.6 W 37 69 20 37 - - 0.0
29/08:30am 2.9 -5.9 -1.3 74 1.7 W 35 65 19 35 - - 0.0
29/08:00am 2.5 -6.0 -1.8 73 1.7 W 33 61 18 33 - - 0.0
29/07:30am 2.1 -7.2 -1.9 75 1.6 W 37 74 20 40 - - 0.0
29/07:00am 1.9 -7.0 -2.1 75 1.6 W 35 72 19 39 - - 0.0
29/06:30am 1.1 -7.3 -2.3 78 1.4 W 32 56 17 30 - - 0.0
29/06:00am 1.4 -7.6 -2.5 75 1.6 W 35 67 19 36 - - 0.0
29/05:30am 1.3 -8.4 -2.6 75 1.6 W 39 74 21 40 - - 0.0
29/05:00am 1.8 -8.3 -2.3 74 1.6 W 41 70 22 38 - - 0.0
29/04:30am 1.7 -8.0 -2.1 76 1.5 W 39 69 21 37 - - 0.0
29/04:00am 1.4 -8.2 -1.8 79 1.3 W 39 70 21 38 - - 0.0
29/03:30am 1.5 -8.1 -1.7 79 1.3 W 39 69 21 37 - - 0.0
29/03:00am 1.2 -8.4 -1.7 81 1.1 W 39 63 21 34 - - 0.0
29/02:30am 1.3 -7.9 -1.1 84 1.0 W 37 69 20 37 - - 0.0
29/02:00am 1.0 -8.2 -1.1 86 0.8 W 37 63 20 34 - - 0.0
29/01:30am 1.2 -8.0 -1.0 85 0.9 W 37 67 20 36 - - 0.0
29/01:00am 1.4 -7.6 -0.2 89 0.7 W 37 67 20 36 - - 0.0
29/12:30am 1.3 -7.3 0.3 93 0.4 W 35 65 19 35 - - 0.0
29/12:00am 1.4 -8.7 0.5 94 0.4 W 43 70 23 38 - - 0.0
 
Date/Time
EST
Tmp

°C
App
Tmp
°C
Dew
Point
°C
Rel
Hum
%
Delta-T

°C
Wind Press
QNH
hPa
Press
MSL
hPa
Rain
since
9 am
mm
Dir
 
Spd
km/h
Gust
km/h
Spd
kts
Gust
kts
28/11:30pm 1.3 -8.0 0.6 95 0.3 W 39 69 21 37 - - 0.0

Latest Capital City Observations: Canberra | Sydney | Melbourne | Brisbane | Adelaide | Perth | Hobart | Darwin

Other Formats:

Comma delimited format used in spreadsheet applications
http://www.bom.gov.au/fwo/IDN60903/IDN60903.95925.axf

JavaScript Object Notation format (JSON) in row-major order
http://www.bom.gov.au/fwo/IDN60903/IDN60903.95925.json